sensor_id;sensor_type;location;lat;lon;timestamp;P1;durP1;ratioP1;P2;durP2;ratioP2
39930;SDS011;26635;-35.248;149.138;2024-03-07T00:01:23;8.20;;;4.75;;
39930;SDS011;26635;-35.248;149.138;2024-03-07T00:03:55;8.43;;;4.35;;
39930;SDS011;26635;-35.248;149.138;2024-03-07T00:06:25;5.85;;;3.50;;
39930;SDS011;26635;-35.248;149.138;2024-03-07T00:08:56;8.75;;;3.67;;
39930;SDS011;26635;-35.248;149.138;2024-03-07T00:11:27;7.00;;;3.50;;
39930;SDS011;26635;-35.248;149.138;2024-03-07T00:13:59;6.28;;;3.40;;
39930;SDS011;26635;-35.248;149.138;2024-03-07T00:16:29;8.32;;;3.42;;
39930;SDS011;26635;-35.248;149.138;2024-03-07T00:19:00;5.07;;;3.40;;
39930;SDS011;26635;-35.248;149.138;2024-03-07T00:21:30;5.80;;;3.97;;
39930;SDS011;26635;-35.248;149.138;2024-03-07T00:24:01;6.20;;;3.50;;
39930;SDS011;26635;-35.248;149.138;2024-03-07T00:26:33;7.00;;;3.53;;
39930;SDS011;26635;-35.248;149.138;2024-03-07T00:29:04;5.57;;;3.78;;
39930;SDS011;26635;-35.248;149.138;2024-03-07T00:31:36;4.93;;;3.55;;
39930;SDS011;26635;-35.248;149.138;2024-03-07T00:34:07;5.25;;;3.13;;
39930;SDS011;26635;-35.248;149.138;2024-03-07T00:36:46;10.38;;;3.88;;
39930;SDS011;26635;-35.248;149.138;2024-03-07T00:39:16;5.40;;;3.20;;
39930;SDS011;26635;-35.248;149.138;2024-03-07T00:41:48;5.65;;;2.75;;
39930;SDS011;26635;-35.248;149.138;2024-03-07T00:44:18;6.57;;;3.25;;
39930;SDS011;26635;-35.248;149.138;2024-03-07T00:46:49;8.70;;;2.97;;
39930;SDS011;26635;-35.248;149.138;2024-03-07T00:49:19;4.68;;;2.90;;
39930;SDS011;26635;-35.248;149.138;2024-03-07T00:51:49;7.57;;;2.85;;
39930;SDS011;26635;-35.248;149.138;2024-03-07T00:54:20;9.40;;;2.90;;
39930;SDS011;26635;-35.248;149.138;2024-03-07T00:56:51;6.60;;;3.08;;
39930;SDS011;26635;-35.248;149.138;2024-03-07T00:59:23;5.50;;;2.53;;
39930;SDS011;26635;-35.248;149.138;2024-03-07T01:01:54;6.72;;;2.88;;
39930;SDS011;26635;-35.248;149.138;2024-03-07T01:04:24;5.30;;;2.63;;
39930;SDS011;26635;-35.248;149.138;2024-03-07T01:06:59;8.60;;;2.80;;
39930;SDS011;26635;-35.248;149.138;2024-03-07T01:09:30;6.05;;;2.95;;
39930;SDS011;26635;-35.248;149.138;2024-03-07T01:12:01;6.47;;;2.30;;
39930;SDS011;26635;-35.248;149.138;2024-03-07T01:14:35;4.13;;;2.40;;
39930;SDS011;26635;-35.248;149.138;2024-03-07T01:17:06;4.88;;;2.03;;
39930;SDS011;26635;-35.248;149.138;2024-03-07T01:19:37;3.72;;;2.10;;
39930;SDS011;26635;-35.248;149.138;2024-03-07T01:22:07;6.22;;;2.25;;
39930;SDS011;26635;-35.248;149.138;2024-03-07T01:24:43;4.85;;;2.47;;
39930;SDS011;26635;-35.248;149.138;2024-03-07T01:27:14;5.63;;;2.13;;
39930;SDS011;26635;-35.248;149.138;2024-03-07T01:29:45;5.60;;;2.28;;
39930;SDS011;26635;-35.248;149.138;2024-03-07T01:32:17;6.63;;;2.42;;
39930;SDS011;26635;-35.248;149.138;2024-03-07T01:34:47;3.88;;;2.38;;
39930;SDS011;26635;-35.248;149.138;2024-03-07T01:37:18;6.15;;;2.10;;
39930;SDS011;26635;-35.248;149.138;2024-03-07T01:39:48;7.28;;;2.20;;
39930;SDS011;26635;-35.248;149.138;2024-03-07T01:42:19;5.18;;;1.88;;
39930;SDS011;26635;-35.248;149.138;2024-03-07T01:44:50;3.53;;;1.90;;
39930;SDS011;26635;-35.248;149.138;2024-03-07T01:47:23;6.43;;;2.45;;
39930;SDS011;26635;-35.248;149.138;2024-03-07T01:49:54;4.75;;;1.73;;
39930;SDS011;26635;-35.248;149.138;2024-03-07T01:52:26;5.50;;;2.15;;
39930;SDS011;26635;-35.248;149.138;2024-03-07T01:54:58;5.82;;;2.67;;
39930;SDS011;26635;-35.248;149.138;2024-03-07T01:57:30;4.25;;;2.30;;
39930;SDS011;26635;-35.248;149.138;2024-03-07T02:00:01;4.85;;;2.08;;
39930;SDS011;26635;-35.248;149.138;2024-03-07T02:02:35;4.90;;;1.58;;
39930;SDS011;26635;-35.248;149.138;2024-03-07T02:05:06;4.80;;;1.90;;
39930;SDS011;26635;-35.248;149.138;2024-03-07T02:07:38;4.00;;;1.52;;
39930;SDS011;26635;-35.248;149.138;2024-03-07T02:10:09;8.25;;;2.28;;
39930;SDS011;26635;-35.248;149.138;2024-03-07T02:12:40;5.78;;;1.90;;
39930;SDS011;26635;-35.248;149.138;2024-03-07T02:15:11;5.40;;;1.95;;
39930;SDS011;26635;-35.248;149.138;2024-03-07T02:17:42;4.35;;;1.52;;
39930;SDS011;26635;-35.248;149.138;2024-03-07T02:20:14;8.25;;;1.60;;
39930;SDS011;26635;-35.248;149.138;2024-03-07T02:22:45;5.78;;;1.50;;
39930;SDS011;26635;-35.248;149.138;2024-03-07T02:25:16;5.05;;;1.80;;
39930;SDS011;26635;-35.248;149.138;2024-03-07T02:27:48;5.47;;;1.48;;
39930;SDS011;26635;-35.248;149.138;2024-03-07T02:30:20;5.43;;;1.83;;
39930;SDS011;26635;-35.248;149.138;2024-03-07T02:32:52;3.50;;;1.80;;
39930;SDS011;26635;-35.248;149.138;2024-03-07T02:35:32;4.85;;;1.77;;
39930;SDS011;26635;-35.248;149.138;2024-03-07T02:38:06;4.13;;;1.47;;
39930;SDS011;26635;-35.248;149.138;2024-03-07T02:40:41;6.78;;;2.13;;
39930;SDS011;26635;-35.248;149.138;2024-03-07T02:43:12;6.07;;;1.40;;
39930;SDS011;26635;-35.248;149.138;2024-03-07T02:45:43;4.60;;;2.20;;
39930;SDS011;26635;-35.248;149.138;2024-03-07T02:48:14;2.90;;;1.40;;
39930;SDS011;26635;-35.248;149.138;2024-03-07T02:50:47;5.13;;;2.10;;
39930;SDS011;26635;-35.248;149.138;2024-03-07T02:53:18;3.92;;;1.83;;
39930;SDS011;26635;-35.248;149.138;2024-03-07T02:55:49;5.97;;;1.73;;
39930;SDS011;26635;-35.248;149.138;2024-03-07T02:58:19;5.55;;;2.13;;
39930;SDS011;26635;-35.248;149.138;2024-03-07T03:00:59;6.35;;;2.15;;
39930;SDS011;26635;-35.248;149.138;2024-03-07T03:03:31;3.72;;;1.92;;
39930;SDS011;26635;-35.248;149.138;2024-03-07T03:06:01;3.92;;;1.60;;
39930;SDS011;26635;-35.248;149.138;2024-03-07T03:08:34;4.30;;;2.20;;
39930;SDS011;26635;-35.248;149.138;2024-03-07T03:11:04;5.43;;;1.67;;
39930;SDS011;26635;-35.248;149.138;2024-03-07T03:13:38;4.72;;;2.33;;
39930;SDS011;26635;-35.248;149.138;2024-03-07T03:16:11;3.17;;;1.90;;
39930;SDS011;26635;-35.248;149.138;2024-03-07T03:18:41;5.25;;;1.90;;
39930;SDS011;26635;-35.248;149.138;2024-03-07T03:21:12;4.70;;;2.45;;
39930;SDS011;26635;-35.248;149.138;2024-03-07T03:23:42;4.82;;;2.08;;
39930;SDS011;26635;-35.248;149.138;2024-03-07T03:26:13;3.50;;;1.92;;
39930;SDS011;26635;-35.248;149.138;2024-03-07T03:28:44;4.03;;;2.15;;
39930;SDS011;26635;-35.248;149.138;2024-03-07T03:31:15;3.13;;;1.33;;
39930;SDS011;26635;-35.248;149.138;2024-03-07T03:33:46;4.05;;;1.65;;
39930;SDS011;26635;-35.248;149.138;2024-03-07T03:36:16;2.97;;;1.75;;
39930;SDS011;26635;-35.248;149.138;2024-03-07T03:38:47;5.35;;;1.73;;
39930;SDS011;26635;-35.248;149.138;2024-03-07T03:41:18;3.92;;;1.73;;
39930;SDS011;26635;-35.248;149.138;2024-03-07T03:43:52;3.17;;;1.48;;
39930;SDS011;26635;-35.248;149.138;2024-03-07T03:46:28;4.65;;;1.50;;
39930;SDS011;26635;-35.248;149.138;2024-03-07T03:48:59;4.50;;;1.50;;
39930;SDS011;26635;-35.248;149.138;2024-03-07T03:51:30;4.60;;;1.70;;
39930;SDS011;26635;-35.248;149.138;2024-03-07T03:54:01;3.40;;;1.35;;
39930;SDS011;26635;-35.248;149.138;2024-03-07T03:56:32;3.72;;;1.50;;
39930;SDS011;26635;-35.248;149.138;2024-03-07T03:59:03;2.45;;;1.40;;
39930;SDS011;26635;-35.248;149.138;2024-03-07T04:01:35;5.75;;;1.55;;
39930;SDS011;26635;-35.248;149.138;2024-03-07T04:04:06;3.88;;;1.10;;
39930;SDS011;26635;-35.248;149.138;2024-03-07T04:06:37;3.28;;;1.40;;
39930;SDS011;26635;-35.248;149.138;2024-03-07T04:09:08;4.47;;;1.50;;
39930;SDS011;26635;-35.248;149.138;2024-03-07T04:11:38;3.72;;;1.40;;
39930;SDS011;26635;-35.248;149.138;2024-03-07T04:14:09;5.65;;;1.20;;
39930;SDS011;26635;-35.248;149.138;2024-03-07T04:16:39;5.40;;;1.60;;
39930;SDS011;26635;-35.248;149.138;2024-03-07T04:19:10;5.05;;;1.58;;
39930;SDS011;26635;-35.248;149.138;2024-03-07T04:21:40;4.97;;;1.67;;
39930;SDS011;26635;-35.248;149.138;2024-03-07T04:24:10;4.18;;;1.80;;
39930;SDS011;26635;-35.248;149.138;2024-03-07T04:26:41;6.32;;;1.85;;
39930;SDS011;26635;-35.248;149.138;2024-03-07T04:29:12;8.55;;;2.20;;
39930;SDS011;26635;-35.248;149.138;2024-03-07T04:31:43;5.75;;;2.22;;
39930;SDS011;26635;-35.248;149.138;2024-03-07T04:34:14;4.50;;;1.75;;
39930;SDS011;26635;-35.248;149.138;2024-03-07T04:36:44;4.22;;;1.77;;
39930;SDS011;26635;-35.248;149.138;2024-03-07T04:39:16;6.75;;;2.38;;
39930;SDS011;26635;-35.248;149.138;2024-03-07T04:42:02;5.32;;;1.98;;
39930;SDS011;26635;-35.248;149.138;2024-03-07T04:44:35;4.68;;;2.08;;
39930;SDS011;26635;-35.248;149.138;2024-03-07T04:47:06;4.45;;;2.05;;
39930;SDS011;26635;-35.248;149.138;2024-03-07T04:49:37;5.60;;;2.45;;
39930;SDS011;26635;-35.248;149.138;2024-03-07T04:52:09;8.90;;;2.35;;
39930;SDS011;26635;-35.248;149.138;2024-03-07T04:54:39;6.07;;;2.38;;
39930;SDS011;26635;-35.248;149.138;2024-03-07T04:57:10;7.55;;;2.75;;
39930;SDS011;26635;-35.248;149.138;2024-03-07T04:59:40;6.38;;;2.35;;
39930;SDS011;26635;-35.248;149.138;2024-03-07T05:02:11;5.05;;;2.05;;
39930;SDS011;26635;-35.248;149.138;2024-03-07T05:04:42;4.82;;;1.90;;
39930;SDS011;26635;-35.248;149.138;2024-03-07T05:07:12;7.65;;;2.60;;
39930;SDS011;26635;-35.248;149.138;2024-03-07T05:09:46;6.38;;;2.30;;
39930;SDS011;26635;-35.248;149.138;2024-03-07T05:12:17;5.13;;;1.73;;
39930;SDS011;26635;-35.248;149.138;2024-03-07T05:14:49;4.97;;;2.33;;
39930;SDS011;26635;-35.248;149.138;2024-03-07T05:17:19;5.55;;;3.03;;
39930;SDS011;26635;-35.248;149.138;2024-03-07T05:19:50;6.97;;;2.42;;
39930;SDS011;26635;-35.248;149.138;2024-03-07T05:22:21;5.13;;;1.90;;
39930;SDS011;26635;-35.248;149.138;2024-03-07T05:24:54;5.13;;;2.03;;
39930;SDS011;26635;-35.248;149.138;2024-03-07T05:27:27;6.22;;;2.20;;
39930;SDS011;26635;-35.248;149.138;2024-03-07T05:29:59;7.95;;;2.58;;
39930;SDS011;26635;-35.248;149.138;2024-03-07T05:32:33;5.55;;;2.13;;
39930;SDS011;26635;-35.248;149.138;2024-03-07T05:35:04;7.97;;;2.50;;
39930;SDS011;26635;-35.248;149.138;2024-03-07T05:37:35;6.43;;;2.45;;
39930;SDS011;26635;-35.248;149.138;2024-03-07T05:40:08;6.53;;;2.30;;
39930;SDS011;26635;-35.248;149.138;2024-03-07T05:42:44;7.32;;;2.40;;
39930;SDS011;26635;-35.248;149.138;2024-03-07T05:45:16;7.22;;;2.65;;
39930;SDS011;26635;-35.248;149.138;2024-03-07T05:47:46;4.55;;;2.00;;
39930;SDS011;26635;-35.248;149.138;2024-03-07T05:50:17;5.65;;;2.63;;
39930;SDS011;26635;-35.248;149.138;2024-03-07T05:52:48;9.35;;;2.55;;
39930;SDS011;26635;-35.248;149.138;2024-03-07T05:55:18;6.30;;;2.10;;
39930;SDS011;26635;-35.248;149.138;2024-03-07T05:57:50;6.13;;;2.35;;
39930;SDS011;26635;-35.248;149.138;2024-03-07T06:00:21;9.25;;;2.97;;
39930;SDS011;26635;-35.248;149.138;2024-03-07T06:02:56;7.63;;;2.27;;
39930;SDS011;26635;-35.248;149.138;2024-03-07T06:05:26;8.77;;;2.33;;
39930;SDS011;26635;-35.248;149.138;2024-03-07T06:08:20;5.68;;;2.33;;
39930;SDS011;26635;-35.248;149.138;2024-03-07T06:10:53;10.82;;;3.38;;
39930;SDS011;26635;-35.248;149.138;2024-03-07T06:13:23;11.85;;;3.13;;
39930;SDS011;26635;-35.248;149.138;2024-03-07T06:15:54;4.57;;;2.03;;
39930;SDS011;26635;-35.248;149.138;2024-03-07T06:18:24;6.90;;;2.92;;
39930;SDS011;26635;-35.248;149.138;2024-03-07T06:20:59;5.88;;;2.92;;
39930;SDS011;26635;-35.248;149.138;2024-03-07T06:23:29;6.00;;;2.15;;
39930;SDS011;26635;-35.248;149.138;2024-03-07T06:26:01;9.02;;;2.38;;
39930;SDS011;26635;-35.248;149.138;2024-03-07T06:28:41;11.13;;;2.53;;
39930;SDS011;26635;-35.248;149.138;2024-03-07T06:31:11;7.85;;;2.22;;
39930;SDS011;26635;-35.248;149.138;2024-03-07T06:33:41;8.07;;;3.25;;
39930;SDS011;26635;-35.248;149.138;2024-03-07T06:36:12;6.90;;;3.28;;
39930;SDS011;26635;-35.248;149.138;2024-03-07T06:38:43;7.53;;;2.88;;
39930;SDS011;26635;-35.248;149.138;2024-03-07T06:41:13;9.45;;;3.33;;
39930;SDS011;26635;-35.248;149.138;2024-03-07T06:43:45;7.47;;;3.72;;
39930;SDS011;26635;-35.248;149.138;2024-03-07T06:46:18;7.93;;;2.88;;
39930;SDS011;26635;-35.248;149.138;2024-03-07T06:48:51;11.02;;;3.38;;
39930;SDS011;26635;-35.248;149.138;2024-03-07T06:51:22;8.43;;;3.20;;
39930;SDS011;26635;-35.248;149.138;2024-03-07T06:53:53;5.43;;;2.83;;
39930;SDS011;26635;-35.248;149.138;2024-03-07T06:56:24;9.20;;;4.35;;
39930;SDS011;26635;-35.248;149.138;2024-03-07T06:58:55;6.82;;;3.42;;
39930;SDS011;26635;-35.248;149.138;2024-03-07T07:01:27;8.43;;;3.60;;
39930;SDS011;26635;-35.248;149.138;2024-03-07T07:03:58;8.20;;;3.63;;
39930;SDS011;26635;-35.248;149.138;2024-03-07T07:06:31;12.35;;;3.80;;
39930;SDS011;26635;-35.248;149.138;2024-03-07T07:09:02;10.13;;;3.67;;
39930;SDS011;26635;-35.248;149.138;2024-03-07T07:11:34;5.55;;;3.58;;
39930;SDS011;26635;-35.248;149.138;2024-03-07T07:14:05;6.57;;;3.53;;
39930;SDS011;26635;-35.248;149.138;2024-03-07T07:16:35;8.27;;;2.90;;
39930;SDS011;26635;-35.248;149.138;2024-03-07T07:19:10;9.65;;;3.88;;
39930;SDS011;26635;-35.248;149.138;2024-03-07T07:21:41;7.97;;;3.53;;
39930;SDS011;26635;-35.248;149.138;2024-03-07T07:24:12;8.13;;;3.13;;
39930;SDS011;26635;-35.248;149.138;2024-03-07T07:26:42;7.82;;;3.90;;
39930;SDS011;26635;-35.248;149.138;2024-03-07T07:29:13;9.07;;;3.90;;
39930;SDS011;26635;-35.248;149.138;2024-03-07T07:31:44;7.75;;;3.53;;
39930;SDS011;26635;-35.248;149.138;2024-03-07T07:34:15;9.82;;;4.57;;
39930;SDS011;26635;-35.248;149.138;2024-03-07T07:36:45;8.07;;;3.80;;
39930;SDS011;26635;-35.248;149.138;2024-03-07T07:39:16;8.88;;;3.95;;
39930;SDS011;26635;-35.248;149.138;2024-03-07T07:41:46;10.70;;;4.28;;
39930;SDS011;26635;-35.248;149.138;2024-03-07T07:44:17;8.57;;;3.58;;
39930;SDS011;26635;-35.248;149.138;2024-03-07T07:46:47;10.40;;;4.22;;
39930;SDS011;26635;-35.248;149.138;2024-03-07T07:49:18;8.73;;;4.32;;
39930;SDS011;26635;-35.248;149.138;2024-03-07T07:51:49;7.75;;;3.70;;
39930;SDS011;26635;-35.248;149.138;2024-03-07T07:54:19;14.55;;;4.57;;
39930;SDS011;26635;-35.248;149.138;2024-03-07T07:56:50;11.90;;;4.80;;
39930;SDS011;26635;-35.248;149.138;2024-03-07T07:59:20;10.48;;;4.95;;
39930;SDS011;26635;-35.248;149.138;2024-03-07T08:01:52;9.32;;;4.22;;
39930;SDS011;26635;-35.248;149.138;2024-03-07T08:04:24;10.38;;;4.18;;
39930;SDS011;26635;-35.248;149.138;2024-03-07T08:06:54;11.25;;;4.93;;
39930;SDS011;26635;-35.248;149.138;2024-03-07T08:09:25;11.05;;;4.10;;
39930;SDS011;26635;-35.248;149.138;2024-03-07T08:11:57;10.18;;;4.25;;
39930;SDS011;26635;-35.248;149.138;2024-03-07T08:14:31;8.50;;;4.60;;
39930;SDS011;26635;-35.248;149.138;2024-03-07T08:17:01;8.23;;;4.40;;
39930;SDS011;26635;-35.248;149.138;2024-03-07T08:19:33;8.82;;;4.72;;
39930;SDS011;26635;-35.248;149.138;2024-03-07T08:22:04;7.93;;;4.40;;
39930;SDS011;26635;-35.248;149.138;2024-03-07T08:24:34;9.27;;;5.30;;
39930;SDS011;26635;-35.248;149.138;2024-03-07T08:27:06;12.93;;;4.45;;
39930;SDS011;26635;-35.248;149.138;2024-03-07T08:29:40;10.00;;;5.10;;
39930;SDS011;26635;-35.248;149.138;2024-03-07T08:32:11;8.95;;;4.43;;
39930;SDS011;26635;-35.248;149.138;2024-03-07T08:34:41;12.88;;;4.20;;
39930;SDS011;26635;-35.248;149.138;2024-03-07T08:37:12;9.18;;;3.85;;
39930;SDS011;26635;-35.248;149.138;2024-03-07T08:39:42;9.43;;;4.20;;
39930;SDS011;26635;-35.248;149.138;2024-03-07T08:42:12;8.65;;;4.15;;
39930;SDS011;26635;-35.248;149.138;2024-03-07T08:44:45;8.68;;;4.63;;
39930;SDS011;26635;-35.248;149.138;2024-03-07T08:47:17;8.77;;;4.88;;
39930;SDS011;26635;-35.248;149.138;2024-03-07T08:49:48;12.38;;;4.95;;
39930;SDS011;26635;-35.248;149.138;2024-03-07T08:52:19;10.65;;;4.45;;
39930;SDS011;26635;-35.248;149.138;2024-03-07T08:54:51;8.95;;;4.38;;
39930;SDS011;26635;-35.248;149.138;2024-03-07T08:57:24;8.93;;;4.78;;
39930;SDS011;26635;-35.248;149.138;2024-03-07T08:59:55;8.70;;;4.35;;
39930;SDS011;26635;-35.248;149.138;2024-03-07T09:02:27;10.75;;;4.75;;
39930;SDS011;26635;-35.248;149.138;2024-03-07T09:05:01;9.98;;;5.50;;
39930;SDS011;26635;-35.248;149.138;2024-03-07T09:07:32;10.80;;;4.60;;
39930;SDS011;26635;-35.248;149.138;2024-03-07T09:10:03;9.55;;;4.65;;
39930;SDS011;26635;-35.248;149.138;2024-03-07T09:12:35;8.57;;;4.28;;
39930;SDS011;26635;-35.248;149.138;2024-03-07T09:15:06;10.68;;;4.15;;
39930;SDS011;26635;-35.248;149.138;2024-03-07T09:17:41;10.02;;;5.22;;
39930;SDS011;26635;-35.248;149.138;2024-03-07T09:20:13;8.32;;;4.45;;
39930;SDS011;26635;-35.248;149.138;2024-03-07T09:22:44;10.95;;;4.45;;
39930;SDS011;26635;-35.248;149.138;2024-03-07T09:25:16;7.97;;;3.67;;
39930;SDS011;26635;-35.248;149.138;2024-03-07T09:30:25;10.73;;;4.55;;
39930;SDS011;26635;-35.248;149.138;2024-03-07T09:32:58;7.75;;;4.00;;
39930;SDS011;26635;-35.248;149.138;2024-03-07T09:35:30;13.52;;;4.38;;
39930;SDS011;26635;-35.248;149.138;2024-03-07T09:38:01;9.93;;;4.57;;
39930;SDS011;26635;-35.248;149.138;2024-03-07T09:40:31;6.13;;;3.70;;
39930;SDS011;26635;-35.248;149.138;2024-03-07T09:43:02;10.43;;;4.70;;
39930;SDS011;26635;-35.248;149.138;2024-03-07T09:45:36;7.72;;;4.25;;
39930;SDS011;26635;-35.248;149.138;2024-03-07T09:48:14;10.32;;;4.40;;
39930;SDS011;26635;-35.248;149.138;2024-03-07T09:50:46;9.48;;;4.15;;
39930;SDS011;26635;-35.248;149.138;2024-03-07T09:53:20;7.47;;;4.47;;
39930;SDS011;26635;-35.248;149.138;2024-03-07T09:55:53;7.57;;;4.07;;
39930;SDS011;26635;-35.248;149.138;2024-03-07T09:58:24;9.30;;;4.18;;
39930;SDS011;26635;-35.248;149.138;2024-03-07T10:00:58;7.22;;;4.85;;
39930;SDS011;26635;-35.248;149.138;2024-03-07T10:03:31;10.77;;;4.07;;
39930;SDS011;26635;-35.248;149.138;2024-03-07T10:06:04;8.93;;;4.88;;
39930;SDS011;26635;-35.248;149.138;2024-03-07T10:08:34;10.20;;;4.88;;
39930;SDS011;26635;-35.248;149.138;2024-03-07T10:11:05;9.77;;;4.50;;
39930;SDS011;26635;-35.248;149.138;2024-03-07T10:13:37;7.32;;;3.97;;
39930;SDS011;26635;-35.248;149.138;2024-03-07T10:16:08;7.63;;;4.22;;
39930;SDS011;26635;-35.248;149.138;2024-03-07T10:18:42;9.25;;;4.40;;
39930;SDS011;26635;-35.248;149.138;2024-03-07T10:21:13;9.30;;;4.30;;
39930;SDS011;26635;-35.248;149.138;2024-03-07T10:23:46;7.15;;;4.22;;
39930;SDS011;26635;-35.248;149.138;2024-03-07T10:26:17;10.35;;;5.40;;
39930;SDS011;26635;-35.248;149.138;2024-03-07T10:28:48;7.70;;;4.30;;
39930;SDS011;26635;-35.248;149.138;2024-03-07T10:31:31;7.20;;;4.18;;
39930;SDS011;26635;-35.248;149.138;2024-03-07T10:34:09;9.27;;;4.43;;
39930;SDS011;26635;-35.248;149.138;2024-03-07T10:36:40;6.63;;;4.78;;
39930;SDS011;26635;-35.248;149.138;2024-03-07T10:39:13;7.55;;;4.18;;
39930;SDS011;26635;-35.248;149.138;2024-03-07T10:41:46;8.82;;;4.80;;
39930;SDS011;26635;-35.248;149.138;2024-03-07T10:44:23;10.52;;;5.35;;
39930;SDS011;26635;-35.248;149.138;2024-03-07T10:46:57;7.05;;;4.05;;
39930;SDS011;26635;-35.248;149.138;2024-03-07T10:49:33;10.05;;;5.53;;
39930;SDS011;26635;-35.248;149.138;2024-03-07T10:52:12;10.25;;;5.03;;
39930;SDS011;26635;-35.248;149.138;2024-03-07T10:57:54;11.48;;;3.55;;
39930;SDS011;26635;-35.248;149.138;2024-03-07T11:00:31;8.18;;;3.75;;
39930;SDS011;26635;-35.248;149.138;2024-03-07T11:03:08;12.98;;;4.38;;
39930;SDS011;26635;-35.248;149.138;2024-03-07T11:05:40;8.23;;;3.95;;
39930;SDS011;26635;-35.248;149.138;2024-03-07T11:08:12;8.70;;;3.67;;
39930;SDS011;26635;-35.248;149.138;2024-03-07T11:10:53;7.40;;;3.90;;
39930;SDS011;26635;-35.248;149.138;2024-03-07T11:13:25;8.32;;;3.97;;
39930;SDS011;26635;-35.248;149.138;2024-03-07T11:15:57;9.48;;;3.13;;
39930;SDS011;26635;-35.248;149.138;2024-03-07T11:18:29;9.57;;;3.45;;
39930;SDS011;26635;-35.248;149.138;2024-03-07T11:21:01;13.32;;;4.15;;
39930;SDS011;26635;-35.248;149.138;2024-03-07T11:23:34;8.65;;;4.38;;
39930;SDS011;26635;-35.248;149.138;2024-03-07T11:28:42;6.60;;;3.25;;
39930;SDS011;26635;-35.248;149.138;2024-03-07T11:31:26;13.05;;;4.57;;
39930;SDS011;26635;-35.248;149.138;2024-03-07T11:34:15;15.95;;;5.93;;
39930;SDS011;26635;-35.248;149.138;2024-03-07T11:36:49;11.65;;;5.28;;
39930;SDS011;26635;-35.248;149.138;2024-03-07T11:42:23;7.78;;;3.28;;
39930;SDS011;26635;-35.248;149.138;2024-03-07T11:45:00;9.90;;;3.22;;
39930;SDS011;26635;-35.248;149.138;2024-03-07T11:47:35;14.85;;;5.05;;
39930;SDS011;26635;-35.248;149.138;2024-03-07T11:50:10;9.45;;;3.85;;
39930;SDS011;26635;-35.248;149.138;2024-03-07T11:52:40;9.98;;;3.75;;
39930;SDS011;26635;-35.248;149.138;2024-03-07T11:55:12;7.97;;;3.95;;
39930;SDS011;26635;-35.248;149.138;2024-03-07T11:57:43;6.72;;;3.35;;
39930;SDS011;26635;-35.248;149.138;2024-03-07T12:00:17;8.15;;;3.72;;
39930;SDS011;26635;-35.248;149.138;2024-03-07T12:02:49;10.35;;;4.25;;
39930;SDS011;26635;-35.248;149.138;2024-03-07T12:05:19;7.00;;;2.85;;
39930;SDS011;26635;-35.248;149.138;2024-03-07T12:07:50;14.10;;;3.53;;
39930;SDS011;26635;-35.248;149.138;2024-03-07T12:10:23;9.15;;;4.15;;
39930;SDS011;26635;-35.248;149.138;2024-03-07T12:12:53;15.27;;;7.18;;
39930;SDS011;26635;-35.248;149.138;2024-03-07T12:15:25;8.90;;;4.00;;
39930;SDS011;26635;-35.248;149.138;2024-03-07T12:17:55;10.80;;;4.18;;
39930;SDS011;26635;-35.248;149.138;2024-03-07T12:20:26;11.75;;;3.47;;
39930;SDS011;26635;-35.248;149.138;2024-03-07T12:23:02;9.70;;;3.80;;
39930;SDS011;26635;-35.248;149.138;2024-03-07T12:25:38;13.13;;;4.65;;
39930;SDS011;26635;-35.248;149.138;2024-03-07T12:28:10;11.18;;;3.63;;
39930;SDS011;26635;-35.248;149.138;2024-03-07T12:33:21;11.23;;;4.60;;
39930;SDS011;26635;-35.248;149.138;2024-03-07T12:35:56;10.82;;;4.13;;
39930;SDS011;26635;-35.248;149.138;2024-03-07T12:38:38;10.07;;;3.33;;
39930;SDS011;26635;-35.248;149.138;2024-03-07T12:41:10;8.63;;;3.63;;
39930;SDS011;26635;-35.248;149.138;2024-03-07T12:43:44;9.82;;;3.63;;
39930;SDS011;26635;-35.248;149.138;2024-03-07T12:46:16;9.23;;;3.45;;
39930;SDS011;26635;-35.248;149.138;2024-03-07T12:48:48;8.75;;;3.85;;
39930;SDS011;26635;-35.248;149.138;2024-03-07T12:51:19;9.75;;;3.40;;
39930;SDS011;26635;-35.248;149.138;2024-03-07T12:53:51;8.98;;;3.15;;
39930;SDS011;26635;-35.248;149.138;2024-03-07T12:56:22;9.20;;;2.95;;
39930;SDS011;26635;-35.248;149.138;2024-03-07T12:58:52;11.23;;;3.38;;
39930;SDS011;26635;-35.248;149.138;2024-03-07T13:01:25;6.93;;;3.30;;
39930;SDS011;26635;-35.248;149.138;2024-03-07T13:03:56;6.57;;;2.75;;
39930;SDS011;26635;-35.248;149.138;2024-03-07T13:06:27;7.45;;;3.10;;
39930;SDS011;26635;-35.248;149.138;2024-03-07T13:09:01;7.40;;;3.28;;
39930;SDS011;26635;-35.248;149.138;2024-03-07T13:11:32;6.50;;;2.72;;
39930;SDS011;26635;-35.248;149.138;2024-03-07T13:14:02;6.18;;;2.53;;
39930;SDS011;26635;-35.248;149.138;2024-03-07T13:16:34;7.25;;;2.80;;
39930;SDS011;26635;-35.248;149.138;2024-03-07T13:19:04;5.95;;;2.33;;
39930;SDS011;26635;-35.248;149.138;2024-03-07T13:21:35;7.70;;;3.13;;
39930;SDS011;26635;-35.248;149.138;2024-03-07T13:24:05;8.38;;;3.03;;
39930;SDS011;26635;-35.248;149.138;2024-03-07T13:26:37;8.75;;;3.00;;
39930;SDS011;26635;-35.248;149.138;2024-03-07T13:29:12;5.38;;;2.45;;
39930;SDS011;26635;-35.248;149.138;2024-03-07T13:31:44;9.07;;;2.85;;
39930;SDS011;26635;-35.248;149.138;2024-03-07T13:34:14;7.68;;;3.78;;
39930;SDS011;26635;-35.248;149.138;2024-03-07T13:36:47;5.63;;;2.17;;
39930;SDS011;26635;-35.248;149.138;2024-03-07T13:39:17;6.53;;;2.58;;
39930;SDS011;26635;-35.248;149.138;2024-03-07T13:41:48;4.88;;;2.40;;
39930;SDS011;26635;-35.248;149.138;2024-03-07T13:44:19;7.07;;;2.65;;
39930;SDS011;26635;-35.248;149.138;2024-03-07T13:46:53;8.10;;;3.50;;
39930;SDS011;26635;-35.248;149.138;2024-03-07T13:49:23;5.85;;;2.10;;
39930;SDS011;26635;-35.248;149.138;2024-03-07T13:51:56;8.00;;;3.33;;
39930;SDS011;26635;-35.248;149.138;2024-03-07T13:54:38;7.25;;;2.53;;
39930;SDS011;26635;-35.248;149.138;2024-03-07T14:14:42;7.32;;;2.40;;
39930;SDS011;26635;-35.248;149.138;2024-03-07T14:32:21;6.35;;;1.90;;
39930;SDS011;26635;-35.248;149.138;2024-03-07T14:35:08;5.93;;;2.00;;
39930;SDS011;26635;-35.248;149.138;2024-03-07T14:40:54;7.85;;;2.25;;
39930;SDS011;26635;-35.248;149.138;2024-03-07T14:43:26;7.20;;;2.30;;
39930;SDS011;26635;-35.248;149.138;2024-03-07T14:45:58;6.65;;;2.22;;
39930;SDS011;26635;-35.248;149.138;2024-03-07T14:48:28;4.35;;;1.52;;
39930;SDS011;26635;-35.248;149.138;2024-03-07T14:50:59;9.75;;;2.85;;
39930;SDS011;26635;-35.248;149.138;2024-03-07T14:53:32;6.53;;;2.72;;
39930;SDS011;26635;-35.248;149.138;2024-03-07T14:56:03;6.85;;;2.42;;
39930;SDS011;26635;-35.248;149.138;2024-03-07T14:58:33;9.35;;;1.90;;
39930;SDS011;26635;-35.248;149.138;2024-03-07T15:01:04;6.55;;;1.88;;
39930;SDS011;26635;-35.248;149.138;2024-03-07T15:03:35;9.05;;;2.40;;
39930;SDS011;26635;-35.248;149.138;2024-03-07T15:06:07;4.45;;;2.20;;
39930;SDS011;26635;-35.248;149.138;2024-03-07T15:08:37;5.43;;;1.63;;
39930;SDS011;26635;-35.248;149.138;2024-03-07T15:13:53;4.88;;;1.92;;
39930;SDS011;26635;-35.248;149.138;2024-03-07T15:16:23;4.70;;;1.98;;
39930;SDS011;26635;-35.248;149.138;2024-03-07T15:19:02;8.05;;;2.75;;
39930;SDS011;26635;-35.248;149.138;2024-03-07T15:21:33;5.60;;;1.67;;
39930;SDS011;26635;-35.248;149.138;2024-03-07T15:24:06;6.25;;;2.20;;
39930;SDS011;26635;-35.248;149.138;2024-03-07T15:26:37;7.45;;;1.88;;